ADDS METAR Data INFO
IDs: Format: Raw Decoded Include TAF

Data at: 1517 UTC 21 Feb 2018

KCHA 201453Z 20005KT 9SM BKN014 BKN020 17/14 A3036 RMK AO2 SLP278 T01720144 53015
KCHA 211353Z 19006KT 10SM FEW014 BKN023 BKN030 21/17 A3036 RMK AO2 SLP275 T02060172
KCHA 211253Z 18007KT 10SM SCT018 BKN023 OVC035 20/17 A3035 RMK AO2 SLP270 T02000167
KCHA 201453Z 20005KT 9SM BKN014 BKN020 17/14 A3036 RMK AO2 SLP278 T01720144 53015
KCHA 201353Z 17005KT 8SM BKN014 OVC020 16/14 A3035 RMK AO2 SLP273 T01610139
KCHA 201253Z 00000KT 5SM BR OVC012 14/13 A3033 RMK AO2 SLP267 T01390133
KCHA 201153Z 15004KT 6SM BR BKN012 BKN045 14/13 A3032 RMK AO2 SLP263 T01390128 10150 20128 50005 $
KCHA 201151Z 15004KT 6SM BR BKN012 BKN045 13/13 A3032 RMK AO2 $
KCHA 201053Z COR 18004KT 7SM FEW048 SCT070 14/13 A3032 RMK AO2 SLP264 T01440133 $
KCHA 200953Z AUTO 18006KT 9SM SCT070 15/13 A3031 RMK AO2 SLP259 T01500133 $
KCHA 200853Z AUTO 17004KT 8SM SCT070 13/13 A3030 RMK AO2 SLP258 T01330128 51003 $
KCHA 200753Z AUTO 15003KT 10SM FEW070 14/13 A3030 RMK AO2 SLP258 T01440128 $
KCHA 200653Z AUTO 18006KT 10SM FEW048 FEW060 BKN070 14/13 A3030 RMK AO2 SLP257 T01440128 $
KCHA 200553Z AUTO 18005KT 10SM CLR 15/13 A3029 RMK AO2 SLP255 T01500128 10183 20150 51009 $
KCHA 200453Z 18006KT 10SM FEW065 FEW250 16/13 A3029 RMK AO2 SLP254 LAST T01560128 402000139 $
KCHA 200353Z 18005KT 10SM FEW070 SCT250 16/13 A3028 RMK AO2 SLP252 T01560133 $